createdAt,value
2023-03-12T00:00:53.578Z,10.43
2023-03-12T00:03:20.491Z,11.32
2023-03-12T00:05:47.310Z,6.38
2023-03-12T00:08:14.528Z,7.57
2023-03-12T00:10:41.943Z,4.78
2023-03-12T00:13:09.164Z,6.80
2023-03-12T00:15:38.773Z,5.80
2023-03-12T00:18:06.153Z,6.93
2023-03-12T00:20:33.913Z,5.65
2023-03-12T00:23:00.980Z,7.88
2023-03-12T00:25:27.893Z,4.68
2023-03-12T00:27:54.991Z,7.63
2023-03-12T00:30:22.069Z,5.32
2023-03-12T00:32:48.915Z,5.28
2023-03-12T00:35:15.843Z,5.20
2023-03-12T00:37:42.611Z,5.10
2023-03-12T00:40:11.529Z,4.38
2023-03-12T00:42:38.322Z,7.70
2023-03-12T00:45:06.240Z,6.00
2023-03-12T00:47:33.062Z,9.60
2023-03-12T00:49:59.957Z,7.50
2023-03-12T00:52:26.734Z,8.57
2023-03-12T00:54:58.371Z,5.75
2023-03-12T00:57:25.550Z,7.43
2023-03-12T00:59:52.388Z,5.97
2023-03-12T01:02:19.190Z,11.23
2023-03-12T01:04:46.072Z,4.80
2023-03-12T01:07:13.051Z,7.30
2023-03-12T01:09:39.845Z,6.55
2023-03-12T01:12:07.103Z,4.60
2023-03-12T01:14:34.044Z,8.18
2023-03-12T01:17:01.017Z,9.23
2023-03-12T01:19:27.869Z,5.25
2023-03-12T01:21:54.626Z,8.02
2023-03-12T01:24:21.397Z,7.82
2023-03-12T01:26:48.166Z,6.97
2023-03-12T01:29:14.954Z,5.50
2023-03-12T01:31:41.872Z,6.20
2023-03-12T01:34:11.843Z,7.25
2023-03-12T01:36:38.668Z,7.43
2023-03-12T01:39:05.793Z,8.73
2023-03-12T01:41:33.853Z,6.05
2023-03-12T01:44:03.690Z,7.70
2023-03-12T01:46:39.975Z,4.53
2023-03-12T01:49:32.316Z,8.27
2023-03-12T01:52:07.747Z,6.88
2023-03-12T01:54:56.716Z,11.10
2023-03-12T01:57:53.568Z,9.82
2023-03-12T02:00:25.425Z,5.88
2023-03-12T02:02:59.469Z,7.13
2023-03-12T02:05:43.745Z,6.97
2023-03-12T02:08:12.610Z,7.22
2023-03-12T02:10:39.502Z,9.05
2023-03-12T02:13:07.033Z,10.75
2023-03-12T02:15:36.078Z,6.80
2023-03-12T02:18:08.442Z,6.60
2023-03-12T02:20:42.194Z,7.40
2023-03-12T02:23:31.629Z,9.43
2023-03-12T02:26:00.480Z,12.13
2023-03-12T02:28:29.576Z,7.43
2023-03-12T02:31:01.244Z,10.43
2023-03-12T02:33:28.342Z,8.95
2023-03-12T02:35:55.835Z,6.45
2023-03-12T02:38:36.641Z,6.15
2023-03-12T02:41:29.961Z,11.05
2023-03-12T02:44:20.064Z,8.05
2023-03-12T02:46:54.408Z,10.70
2023-03-12T02:49:25.453Z,8.90
2023-03-12T02:51:53.933Z,8.20
2023-03-12T02:54:22.515Z,11.73
2023-03-12T02:56:50.448Z,7.70
2023-03-12T02:59:20.733Z,5.85
2023-03-12T03:01:52.257Z,6.28
2023-03-12T03:04:19.082Z,13.45
2023-03-12T03:06:48.285Z,7.53
2023-03-12T03:09:15.461Z,7.28
2023-03-12T03:11:42.667Z,7.22
2023-03-12T03:14:10.177Z,12.18
2023-03-12T03:16:37.342Z,9.88
2023-03-12T03:19:04.802Z,10.68
2023-03-12T03:21:32.426Z,10.98
2023-03-12T03:23:59.323Z,15.73
2023-03-12T03:26:26.462Z,22.35
2023-03-12T03:28:53.772Z,11.18
2023-03-12T03:31:21.171Z,7.85
2023-03-12T03:33:48.507Z,8.50
2023-03-12T03:36:17.106Z,10.73
2023-03-12T03:38:49.098Z,7.72
2023-03-12T03:41:18.516Z,7.65
2023-03-12T03:43:47.079Z,5.63
2023-03-12T03:46:15.742Z,7.53
2023-03-12T03:48:42.876Z,9.90
2023-03-12T03:51:11.509Z,10.68
2023-03-12T03:53:38.520Z,8.07
2023-03-12T03:56:16.101Z,10.30
2023-03-12T03:58:43.105Z,6.50
2023-03-12T04:22:30.158Z,9.38
2023-03-12T04:24:56.970Z,7.55
2023-03-12T04:27:23.706Z,8.68
2023-03-12T04:29:50.440Z,9.38
2023-03-12T04:32:17.301Z,10.48
2023-03-12T04:34:44.069Z,12.32
2023-03-12T04:37:13.755Z,10.98
2023-03-12T04:39:41.715Z,8.38
2023-03-12T04:42:09.003Z,11.38
2023-03-12T04:44:36.312Z,13.00
2023-03-12T04:47:04.526Z,11.95
2023-03-12T04:49:31.297Z,11.35
2023-03-12T04:51:58.056Z,12.75
2023-03-12T04:54:24.790Z,9.40
2023-03-12T04:56:51.716Z,10.95
2023-03-12T04:59:18.449Z,9.60
2023-03-12T05:01:45.241Z,9.35
2023-03-12T05:04:12.038Z,10.27
2023-03-12T05:06:38.811Z,10.20
2023-03-12T05:09:05.543Z,8.80
2023-03-12T05:11:32.405Z,6.22
2023-03-12T05:13:59.110Z,7.05
2023-03-12T05:16:26.075Z,10.75
2023-03-12T05:18:52.839Z,10.10
2023-03-12T05:21:21.281Z,8.32
2023-03-12T05:23:48.606Z,5.35
2023-03-12T05:26:31.442Z,13.68
2023-03-12T05:29:00.096Z,10.07
2023-03-12T05:31:28.259Z,8.63
2023-03-12T05:33:55.031Z,6.82
2023-03-12T05:36:21.905Z,11.63
2023-03-12T05:38:48.654Z,8.05
2023-03-12T05:41:41.704Z,3.95
2023-03-12T05:44:13.486Z,5.13
2023-03-12T05:46:40.310Z,8.77
2023-03-12T05:49:07.049Z,7.78
2023-03-12T05:51:34.209Z,7.85
2023-03-12T05:54:01.625Z,9.60
2023-03-12T05:56:28.978Z,7.28
2023-03-12T05:58:55.786Z,8.82
2023-03-12T06:01:27.745Z,10.63
2023-03-12T06:03:54.815Z,7.03
2023-03-12T06:06:23.307Z,10.38
2023-03-12T06:08:51.583Z,13.10
2023-03-12T06:11:18.697Z,8.13
2023-03-12T06:13:45.460Z,9.98
2023-03-12T06:16:18.212Z,9.90
2023-03-12T06:18:44.991Z,7.03
2023-03-12T06:21:19.200Z,8.88
2023-03-12T06:23:47.159Z,5.10
2023-03-12T06:26:15.747Z,11.38
2023-03-12T06:28:43.052Z,7.88
2023-03-12T06:31:09.867Z,7.30
2023-03-12T06:33:36.609Z,8.77
2023-03-12T06:36:06.632Z,7.80
2023-03-12T06:38:34.345Z,8.10
2023-03-12T06:41:05.245Z,11.90
2023-03-12T06:43:34.086Z,9.90
2023-03-12T06:46:02.107Z,11.00
2023-03-12T06:48:33.419Z,7.28
2023-03-12T06:51:00.264Z,6.37
2023-03-12T06:53:27.562Z,8.75
2023-03-12T06:55:54.294Z,6.68
2023-03-12T06:58:21.123Z,5.90
2023-03-12T07:00:48.160Z,8.23
2023-03-12T07:03:15.332Z,9.35
2023-03-12T07:05:50.856Z,9.52
2023-03-12T07:08:18.644Z,9.93
2023-03-12T07:10:45.991Z,8.60
2023-03-12T07:13:13.511Z,9.73
2023-03-12T07:15:41.355Z,10.52
2023-03-12T07:18:11.430Z,8.25
2023-03-12T07:20:41.624Z,8.15
2023-03-12T07:23:09.107Z,6.18
2023-03-12T07:25:41.703Z,9.40
2023-03-12T07:28:09.482Z,8.75
2023-03-12T07:30:36.747Z,8.65
2023-03-12T07:33:05.824Z,11.70
2023-03-12T07:35:33.296Z,6.55
2023-03-12T07:38:01.295Z,4.82
2023-03-12T07:40:28.826Z,6.30
2023-03-12T07:42:56.065Z,19.02
2023-03-12T07:45:23.228Z,9.85
2023-03-12T07:47:50.261Z,7.35
2023-03-12T07:50:18.700Z,5.45
2023-03-12T07:52:46.787Z,8.60
2023-03-12T07:55:14.129Z,6.28
2023-03-12T07:57:41.212Z,6.97
2023-03-12T08:00:10.386Z,8.20
2023-03-12T08:02:37.568Z,11.05
2023-03-12T08:05:05.099Z,8.65
2023-03-12T08:07:32.455Z,9.70
2023-03-12T08:10:00.270Z,8.75
2023-03-12T08:12:28.153Z,8.30
2023-03-12T08:14:55.334Z,7.80
2023-03-12T08:17:22.202Z,7.35
2023-03-12T08:19:48.943Z,11.32
2023-03-12T08:22:16.078Z,7.25
2023-03-12T08:24:44.047Z,9.05
2023-03-12T08:27:12.271Z,9.40
2023-03-12T08:29:40.654Z,9.48
2023-03-12T08:32:10.488Z,6.25
2023-03-12T08:34:37.985Z,9.43
2023-03-12T08:37:05.803Z,7.53
2023-03-12T08:39:33.388Z,7.53
2023-03-12T08:42:00.845Z,7.72
2023-03-12T08:44:27.989Z,7.25
2023-03-12T08:46:55.039Z,8.23
2023-03-12T08:49:22.951Z,7.47
2023-03-12T08:51:51.775Z,7.20
2023-03-12T08:54:20.227Z,7.35
2023-03-12T08:56:51.892Z,7.78
2023-03-12T08:59:20.610Z,7.82
2023-03-12T09:01:47.830Z,5.05
2023-03-12T09:04:14.664Z,4.18
2023-03-12T09:06:41.461Z,4.68
2023-03-12T09:09:08.991Z,5.53
2023-03-12T09:11:39.507Z,7.22
2023-03-12T09:16:53.231Z,8.63
2023-03-12T09:19:20.508Z,5.30
2023-03-12T09:21:47.244Z,4.78
2023-03-12T09:24:13.971Z,5.20
2023-03-12T09:26:40.769Z,7.05
2023-03-12T09:29:07.702Z,6.40
2023-03-12T09:31:36.266Z,7.88
2023-03-12T09:34:04.616Z,7.22
2023-03-12T09:36:32.243Z,6.72
2023-03-12T09:38:59.058Z,8.10
2023-03-12T09:41:30.593Z,8.63
2023-03-12T09:44:04.232Z,9.20
2023-03-12T09:47:16.542Z,8.68
2023-03-12T09:49:57.011Z,11.40
2023-03-12T09:53:03.677Z,8.35
2023-03-12T09:55:38.875Z,8.10
2023-03-12T09:58:14.288Z,13.70
2023-03-12T10:00:41.247Z,12.55
2023-03-12T10:03:29.929Z,9.98
2023-03-12T10:06:14.958Z,10.55
2023-03-12T10:08:54.788Z,9.63
2023-03-12T10:12:23.642Z,15.00
2023-03-12T10:15:18.071Z,13.13
2023-03-12T10:17:53.817Z,15.18
2023-03-12T10:20:35.932Z,11.68
2023-03-12T10:23:12.937Z,13.25
2023-03-12T10:25:44.972Z,16.83
2023-03-12T10:28:26.237Z,16.63
2023-03-12T10:30:58.245Z,16.40
2023-03-12T10:36:39.932Z,16.52
2023-03-12T10:39:18.154Z,18.45
2023-03-12T10:41:47.984Z,15.98
2023-03-12T10:44:21.522Z,22.83
2023-03-12T10:46:59.853Z,23.13
2023-03-12T10:49:31.789Z,20.38
2023-03-12T10:52:20.252Z,29.33
2023-03-12T10:54:51.268Z,27.95
2023-03-12T10:57:20.754Z,24.55
2023-03-12T10:59:49.783Z,25.30
2023-03-12T11:03:09.021Z,27.13
2023-03-12T11:05:48.816Z,26.65
2023-03-12T11:08:29.491Z,25.85
2023-03-12T11:10:58.964Z,33.25
2023-03-12T11:13:41.099Z,27.00
2023-03-12T11:16:17.035Z,29.50
2023-03-12T11:19:03.571Z,28.75
2023-03-12T11:21:40.248Z,23.92
2023-03-12T11:24:16.024Z,21.00
2023-03-12T11:27:05.803Z,23.70
2023-03-12T11:29:39.856Z,27.55
2023-03-12T11:32:19.712Z,34.20
2023-03-12T11:34:50.191Z,25.38
2023-03-12T11:37:42.760Z,30.90
2023-03-12T11:40:47.723Z,26.40
2023-03-12T11:43:57.612Z,28.80
2023-03-12T11:47:10.568Z,24.00
2023-03-12T11:50:25.575Z,25.65
2023-03-12T11:53:26.667Z,28.67
2023-03-12T11:56:29.871Z,22.67
2023-03-12T11:59:45.806Z,22.48
2023-03-12T12:02:43.856Z,30.33
2023-03-12T12:05:19.605Z,48.47
2023-03-12T12:08:14.780Z,38.25
2023-03-12T12:11:13.778Z,42.80
2023-03-12T12:14:53.256Z,47.70
2023-03-12T12:17:41.212Z,28.73
2023-03-12T12:20:35.946Z,30.17
2023-03-12T12:23:18.881Z,27.35
2023-03-12T12:26:08.554Z,21.38
2023-03-12T12:29:01.451Z,19.95
2023-03-12T12:31:51.341Z,19.77
2023-03-12T12:34:53.324Z,18.38
2023-03-12T12:37:50.100Z,26.33
2023-03-12T12:40:29.620Z,23.27
2023-03-12T12:43:29.799Z,18.15
2023-03-12T12:46:16.393Z,24.67
2023-03-12T12:48:55.449Z,20.27
2023-03-12T12:51:33.271Z,17.08
2023-03-12T12:54:21.620Z,18.02
2023-03-12T12:57:15.371Z,22.58
2023-03-12T13:00:19.788Z,18.40
2023-03-12T13:02:47.990Z,20.65
2023-03-12T13:05:25.907Z,23.00
2023-03-12T13:07:53.475Z,24.58
2023-03-12T13:10:48.630Z,21.92
2023-03-12T13:13:27.141Z,20.50
2023-03-12T13:16:34.818Z,22.20
2023-03-12T13:19:13.698Z,21.67
2023-03-12T13:21:54.132Z,20.45
2023-03-12T13:24:40.485Z,17.95
2023-03-12T13:27:25.719Z,18.45
2023-03-12T13:29:57.106Z,29.40
2023-03-12T13:32:49.774Z,18.85
2023-03-12T13:35:16.468Z,27.52
2023-03-12T13:37:52.301Z,23.90
2023-03-12T13:40:40.174Z,29.17
2023-03-12T13:43:16.676Z,29.25
2023-03-12T13:46:00.914Z,23.83
2023-03-12T13:48:28.208Z,27.98
2023-03-12T13:50:59.165Z,24.08
2023-03-12T13:53:50.697Z,30.25
2023-03-12T13:56:20.733Z,19.27
2023-03-12T13:59:03.642Z,24.45
2023-03-12T14:01:41.755Z,24.30
2023-03-12T14:04:40.744Z,27.83
2023-03-12T14:07:36.179Z,19.15
2023-03-12T14:10:17.617Z,24.35
2023-03-12T14:12:55.836Z,29.33
2023-03-12T14:15:40.164Z,26.88
2023-03-12T14:18:23.299Z,22.88
2023-03-12T14:20:58.610Z,26.35
2023-03-12T14:23:35.812Z,26.92
2023-03-12T14:26:06.444Z,33.38
2023-03-12T14:28:41.153Z,22.10
2023-03-12T14:31:17.440Z,29.42
2023-03-12T14:34:07.213Z,26.45
2023-03-12T14:37:05.825Z,28.80
2023-03-12T14:39:43.130Z,26.58
2023-03-12T14:42:11.811Z,22.42
2023-03-12T14:44:39.626Z,23.58
2023-03-12T14:47:12.433Z,25.23
2023-03-12T14:49:45.416Z,23.95
2023-03-12T14:52:15.124Z,31.02
2023-03-12T14:55:11.480Z,27.33
2023-03-12T14:57:38.262Z,23.80
2023-03-12T15:00:14.187Z,28.23
2023-03-12T15:02:43.489Z,26.75
2023-03-12T15:05:20.569Z,28.98
2023-03-12T15:07:49.333Z,29.30
2023-03-12T15:10:25.576Z,32.13
2023-03-12T15:12:55.773Z,29.38
2023-03-12T15:15:47.721Z,28.25
2023-03-12T15:18:30.202Z,29.48
2023-03-12T15:20:59.253Z,22.23
2023-03-12T15:23:29.338Z,31.50
2023-03-12T15:26:20.785Z,19.80
2023-03-12T15:29:26.270Z,23.33
2023-03-12T15:31:59.891Z,25.50
2023-03-12T15:34:38.700Z,28.27
2023-03-12T15:37:34.776Z,29.75
2023-03-12T15:40:06.665Z,28.52
2023-03-12T15:45:07.905Z,24.02
2023-03-12T15:47:40.309Z,23.92
2023-03-12T15:50:32.418Z,24.90
2023-03-12T15:53:12.751Z,26.70
2023-03-12T15:55:41.689Z,27.80
2023-03-12T15:58:29.826Z,24.75
2023-03-12T16:01:17.864Z,25.40
2023-03-12T16:03:45.897Z,22.27
2023-03-12T16:06:19.578Z,23.25
2023-03-12T16:09:04.088Z,30.13
2023-03-12T16:11:33.779Z,27.23
2023-03-12T16:14:24.477Z,23.25
2023-03-12T16:16:51.498Z,27.08
2023-03-12T16:19:21.625Z,23.40
2023-03-12T16:21:49.005Z,18.45
2023-03-12T16:24:16.538Z,27.40
2023-03-12T16:26:52.287Z,24.15
2023-03-12T16:29:20.210Z,28.17
2023-03-12T16:31:55.767Z,26.75
2023-03-12T16:34:22.779Z,21.50
2023-03-12T16:36:49.848Z,25.88
2023-03-12T16:39:18.751Z,27.80
2023-03-12T16:41:46.549Z,22.42
2023-03-12T16:44:18.824Z,19.17
2023-03-12T16:46:46.302Z,24.88
2023-03-12T16:49:16.801Z,21.02
2023-03-12T16:51:43.688Z,25.73
2023-03-12T16:54:12.199Z,21.60
2023-03-12T16:56:44.914Z,22.73
2023-03-12T16:59:27.073Z,18.17
2023-03-12T17:04:20.518Z,25.70
2023-03-12T17:06:47.279Z,23.48
2023-03-12T17:09:14.022Z,22.27
2023-03-12T17:11:42.032Z,24.08
2023-03-12T17:14:19.123Z,19.77
2023-03-12T17:16:45.967Z,18.05
2023-03-12T17:19:12.695Z,19.70
2023-03-12T17:21:39.799Z,27.23
2023-03-12T17:24:07.012Z,19.08
2023-03-12T17:26:34.263Z,19.60
2023-03-12T17:29:00.998Z,21.40
2023-03-12T17:31:27.757Z,24.60
2023-03-12T17:33:54.527Z,21.45
2023-03-12T17:36:21.327Z,21.40
2023-03-12T17:38:50.712Z,24.75
2023-03-12T17:41:26.100Z,20.23
2023-03-12T17:43:54.608Z,19.80
2023-03-12T17:46:21.401Z,24.70
2023-03-12T17:48:48.189Z,22.90
2023-03-12T17:51:14.971Z,24.50
2023-03-12T17:53:44.621Z,15.52
2023-03-12T17:56:12.547Z,19.08
2023-03-12T17:58:39.507Z,21.35
2023-03-12T18:01:06.287Z,19.30
2023-03-12T18:03:33.050Z,20.88
2023-03-12T18:06:00.273Z,22.17
2023-03-12T18:08:27.148Z,19.95
2023-03-12T18:10:54.020Z,17.70
2023-03-12T18:13:20.985Z,25.33
2023-03-12T18:15:53.924Z,17.20
2023-03-12T18:18:21.851Z,19.48
2023-03-12T18:20:51.834Z,19.88
2023-03-12T18:23:19.687Z,22.45
2023-03-12T18:25:46.904Z,20.10
2023-03-12T18:28:15.179Z,20.83
2023-03-12T18:30:42.370Z,18.60
2023-03-12T18:33:09.099Z,22.50
2023-03-12T18:35:35.976Z,19.92
2023-03-12T18:38:02.783Z,15.88
2023-03-12T18:40:29.914Z,18.30
2023-03-12T18:43:03.101Z,20.65
2023-03-12T18:45:30.863Z,19.30
2023-03-12T18:47:57.784Z,23.00
2023-03-12T18:50:24.687Z,17.08
2023-03-12T18:52:51.516Z,23.58
2023-03-12T18:55:18.276Z,21.83
2023-03-12T18:57:47.498Z,21.80
2023-03-12T19:00:19.853Z,16.92
2023-03-12T19:02:48.201Z,22.05
2023-03-12T19:05:15.970Z,17.08
2023-03-12T19:07:42.901Z,19.08
2023-03-12T19:10:11.576Z,14.90
2023-03-12T19:12:50.823Z,20.90
2023-03-12T19:15:19.124Z,18.17
2023-03-12T19:17:46.679Z,17.80
2023-03-12T19:20:14.013Z,14.80
2023-03-12T19:22:40.730Z,24.88
2023-03-12T19:25:08.096Z,21.30
2023-03-12T19:27:34.817Z,15.30
2023-03-12T19:30:01.784Z,15.23
2023-03-12T19:32:40.632Z,18.42
2023-03-12T19:35:11.226Z,23.87
2023-03-12T19:37:38.093Z,18.30
2023-03-12T19:40:05.892Z,13.90
2023-03-12T19:42:33.145Z,16.15
2023-03-12T19:45:00.022Z,23.10
2023-03-12T19:47:27.990Z,16.13
2023-03-12T19:49:54.701Z,19.05
2023-03-12T19:52:21.525Z,22.17
2023-03-12T19:55:01.557Z,20.95
2023-03-12T19:57:30.847Z,23.25
2023-03-12T19:59:57.568Z,17.67
2023-03-12T20:02:24.472Z,21.17
2023-03-12T20:04:51.320Z,23.08
2023-03-12T20:07:18.384Z,17.65
2023-03-12T20:09:45.230Z,23.42
2023-03-12T20:12:12.362Z,17.20
2023-03-12T20:14:41.373Z,21.77
2023-03-12T20:17:09.192Z,18.25
2023-03-12T20:19:35.973Z,20.08
2023-03-12T20:22:02.696Z,22.60
2023-03-12T20:24:29.432Z,25.55
2023-03-12T20:26:56.162Z,20.48
2023-03-12T20:29:23.033Z,21.50
2023-03-12T20:31:50.803Z,16.80
2023-03-12T20:34:17.801Z,19.02
2023-03-12T20:36:44.579Z,23.17
2023-03-12T20:39:12.548Z,29.08
2023-03-12T20:41:39.577Z,21.05
2023-03-12T20:44:06.355Z,20.50
2023-03-12T20:46:33.243Z,23.60
2023-03-12T20:49:00.146Z,16.42
2023-03-12T20:51:26.847Z,21.40
2023-03-12T20:53:53.569Z,19.23
2023-03-12T20:56:20.305Z,16.25
2023-03-12T20:58:47.029Z,21.02
2023-03-12T21:01:13.935Z,18.73
2023-03-12T21:03:40.684Z,19.92
2023-03-12T21:06:07.641Z,15.32
2023-03-12T21:08:34.744Z,26.02
2023-03-12T21:11:05.342Z,20.67
2023-03-12T21:13:32.048Z,14.90
2023-03-12T21:15:58.929Z,17.48
2023-03-12T21:18:25.688Z,20.25
2023-03-12T21:20:52.709Z,20.38
2023-03-12T21:23:19.422Z,23.73
2023-03-12T21:25:46.399Z,17.08
2023-03-12T21:28:13.253Z,16.30
2023-03-12T21:30:40.043Z,16.52
2023-03-12T21:33:07.617Z,22.75
2023-03-12T21:35:34.448Z,17.92
2023-03-12T21:38:02.417Z,21.05
2023-03-12T21:40:29.218Z,18.50
2023-03-12T21:42:56.020Z,25.20
2023-03-12T21:45:22.933Z,14.98
2023-03-12T21:47:49.720Z,16.83
2023-03-12T21:50:16.943Z,15.30
2023-03-12T21:52:47.732Z,18.08
2023-03-12T21:55:17.737Z,15.50
2023-03-12T21:57:45.521Z,20.00
2023-03-12T22:00:14.097Z,23.20
2023-03-12T22:02:43.775Z,20.83
2023-03-12T22:05:11.795Z,14.98
2023-03-12T22:07:38.872Z,18.42
2023-03-12T22:10:07.290Z,17.35
2023-03-12T22:12:34.000Z,20.67
2023-03-12T22:15:00.744Z,21.75
2023-03-12T22:17:27.800Z,17.55
2023-03-12T22:19:54.601Z,16.30
2023-03-12T22:22:21.333Z,14.23
2023-03-12T22:24:48.066Z,14.48
2023-03-12T22:27:14.769Z,19.27
2023-03-12T22:29:43.361Z,12.48
2023-03-12T22:32:10.139Z,15.60
2023-03-12T22:34:37.460Z,15.23
2023-03-12T22:37:04.200Z,13.60
2023-03-12T22:39:31.028Z,17.55
2023-03-12T22:41:57.792Z,22.13
2023-03-12T22:44:24.528Z,13.38
2023-03-12T22:46:52.025Z,15.80
2023-03-12T22:49:18.864Z,13.43
2023-03-12T22:51:45.656Z,17.15
2023-03-12T22:54:12.447Z,13.15
2023-03-12T22:56:39.941Z,15.25
2023-03-12T22:59:06.677Z,12.13
2023-03-12T23:01:33.502Z,13.93
2023-03-12T23:04:00.480Z,17.92
2023-03-12T23:06:29.943Z,17.15
2023-03-12T23:08:57.480Z,19.02
2023-03-12T23:11:26.672Z,15.60
2023-03-12T23:13:54.343Z,10.88
2023-03-12T23:16:25.137Z,15.38
2023-03-12T23:18:52.389Z,16.88
2023-03-12T23:21:22.580Z,16.58
2023-03-12T23:23:50.453Z,11.73
2023-03-12T23:26:28.196Z,17.17
2023-03-12T23:28:56.903Z,9.23
2023-03-12T23:31:24.682Z,9.45
2023-03-12T23:33:51.512Z,12.52
2023-03-12T23:36:21.095Z,12.98
2023-03-12T23:38:48.972Z,16.48
2023-03-12T23:41:19.953Z,11.25
2023-03-12T23:43:47.102Z,18.08
2023-03-12T23:46:16.774Z,16.75
2023-03-12T23:48:45.387Z,15.65
2023-03-12T23:51:26.290Z,19.33
2023-03-12T23:53:58.213Z,13.63
2023-03-12T23:56:27.685Z,14.00
2023-03-12T23:58:54.464Z,19.48
